Time;durP1;ratioP1;P1;durP2;ratioP2;P2;SDS_P1;SDS_P2;PMS_P1;PMS_P2;Temp;Humidity;BMP_temperature;BMP_pressure;BME280_temperature;BME280_humidity;BME280_pressure;Samples;Min_cycle;Max_cycle;Signal;HPM_P1;HPM_P2
2022/04/20 00:00:20;;;;;;;0.60;0.60;;;;;;;9.32;39.51;101567.91;4942812;28;97392;-85
2022/04/20 00:02:46;;;;;;;0.60;0.53;;;;;;;9.28;39.49;101562.59;4927654;28;96896;-84
2022/04/20 00:05:12;;;;;;;0.80;0.50;;;;;;;9.23;39.79;101562.44;4942484;28;99789;-84
2022/04/20 00:07:38;;;;;;;0.60;0.50;;;;;;;9.23;39.66;101563.22;4950505;28;99743;-84
2022/04/20 00:10:05;;;;;;;0.50;0.40;;;;;;;9.25;39.79;101563.50;4966241;28;96642;-84
2022/04/20 00:12:31;;;;;;;0.50;0.50;;;;;;;9.25;39.80;101568.22;4971576;28;97003;-83
2022/04/20 00:14:56;;;;;;;0.60;0.60;;;;;;;9.18;39.59;101574.03;4974408;28;96912;-83
2022/04/20 00:17:22;;;;;;;0.60;0.60;;;;;;;9.11;39.74;101568.88;4971095;28;97244;-85
2022/04/20 00:19:48;;;;;;;1.40;0.70;;;;;;;9.09;39.88;101576.81;4970219;28;96960;-85
2022/04/20 00:22:13;;;;;;;0.60;0.53;;;;;;;9.07;39.96;101567.03;4977438;28;96899;-83
2022/04/20 00:24:38;;;;;;;0.67;0.67;;;;;;;9.07;39.79;101575.28;4976453;28;99343;-84
2022/04/20 00:27:04;;;;;;;0.60;0.47;;;;;;;9.04;39.83;101581.66;4969733;28;99680;-84
2022/04/20 00:29:29;;;;;;;0.60;0.60;;;;;;;8.95;39.79;101567.22;4960577;28;96972;-85
2022/04/20 00:31:55;;;;;;;1.27;0.70;;;;;;;8.87;39.88;101585.94;4968418;28;96785;-84
2022/04/20 00:34:20;;;;;;;0.80;0.60;;;;;;;8.78;40.03;101579.72;4966401;28;97539;-84
2022/04/20 00:36:50;;;;;;;0.60;0.60;;;;;;;8.72;40.36;101571.31;4967820;28;99079;-85
2022/04/20 00:39:16;;;;;;;0.67;0.50;;;;;;;8.74;40.26;101568.88;4975173;28;97034;-83
2022/04/20 00:41:41;;;;;;;1.00;0.50;;;;;;;8.75;40.09;101586.09;4969177;28;97565;-84
2022/04/20 00:44:07;;;;;;;1.87;0.60;;;;;;;8.75;40.27;101572.38;4970881;28;97548;-84
2022/04/20 00:46:33;;;;;;;3.63;0.63;;;;;;;8.72;40.22;101574.06;4964449;28;97382;-85
2022/04/20 00:48:59;;;;;;;1.10;1.10;;;;;;;8.65;40.53;101576.34;4963675;28;96869;-84
2022/04/20 00:51:25;;;;;;;1.13;0.90;;;;;;;8.59;40.51;101576.19;4977357;28;96978;-84
2022/04/20 00:53:50;;;;;;;0.67;0.67;;;;;;;8.49;40.70;101574.66;4968423;28;98289;-84
2022/04/20 00:56:15;;;;;;;0.50;0.40;;;;;;;8.45;40.84;101581.50;4968941;28;98201;-84
2022/04/20 00:58:42;;;;;;;0.60;0.50;;;;;;;8.38;40.84;101637.41;4964893;28;96781;-84
2022/04/20 01:01:08;;;;;;;0.70;0.60;;;;;;;8.36;40.77;101574.03;4966059;28;96830;-85
2022/04/20 01:03:34;;;;;;;0.63;0.63;;;;;;;8.36;41.11;101573.25;4971591;28;98239;-85
2022/04/20 01:05:59;;;;;;;1.73;0.67;;;;;;;8.30;41.35;101564.84;4969011;28;98770;-85
2022/04/20 01:08:24;;;;;;;1.30;0.57;;;;;;;8.32;41.23;101571.41;4972366;28;96969;-84
2022/04/20 01:10:50;;;;;;;0.60;0.50;;;;;;;8.26;41.09;101586.16;4970711;28;97035;-84
2022/04/20 01:13:15;;;;;;;0.70;0.70;;;;;;;8.26;41.11;101588.91;4960474;28;98591;-85
2022/04/20 01:15:41;;;;;;;0.70;0.50;;;;;;;8.20;41.33;101583.25;4974327;28;96850;-85
2022/04/20 01:18:13;;;;;;;0.90;0.60;;;;;;;8.14;42.01;101578.81;4968613;28;96665;-85
2022/04/20 01:20:39;;;;;;;0.73;0.73;;;;;;;8.12;41.38;101559.31;4986949;28;96788;-84
2022/04/20 01:23:04;;;;;;;2.03;0.50;;;;;;;8.09;41.51;101588.38;4971519;28;102824;-84
2022/04/20 01:25:30;;;;;;;1.47;0.93;;;;;;;8.04;41.36;101572.53;4967466;28;96693;-84
2022/04/20 01:27:55;;;;;;;0.70;0.50;;;;;;;8.01;41.45;101580.91;4966282;28;97427;-84
2022/04/20 01:30:20;;;;;;;0.67;0.60;;;;;;;7.94;41.39;101571.00;4968265;28;96911;-84
2022/04/20 01:32:46;;;;;;;0.80;0.80;;;;;;;7.91;41.48;101574.63;4966325;28;99902;-84
2022/04/20 01:35:11;;;;;;;0.70;0.67;;;;;;;7.79;41.48;101570.03;4983612;28;100327;-83
2022/04/20 01:37:37;;;;;;;1.40;0.60;;;;;;;7.74;41.78;101564.34;4979402;28;97328;-84
2022/04/20 01:40:02;;;;;;;0.73;0.60;;;;;;;7.68;42.07;101586.09;4967331;28;97185;-84
2022/04/20 01:42:28;;;;;;;1.00;0.90;;;;;;;7.62;41.85;101568.72;4962890;28;99788;-85
2022/04/20 01:44:53;;;;;;;1.47;0.70;;;;;;;7.56;41.98;101581.44;4972545;28;102981;-84
2022/04/20 01:47:18;;;;;;;0.50;0.50;;;;;;;7.53;41.81;101576.91;4971744;28;96955;-84
2022/04/20 01:49:44;;;;;;;2.20;0.60;;;;;;;7.52;42.06;101572.63;4968031;28;96980;-85
2022/04/20 01:52:09;;;;;;;0.50;0.50;;;;;;;7.52;42.08;101573.38;4969208;28;99849;-84
2022/04/20 01:54:35;;;;;;;0.60;0.60;;;;;;;7.47;42.31;101560.25;4973076;28;98903;-85
2022/04/20 01:57:00;;;;;;;1.43;0.73;;;;;;;7.39;42.36;101563.72;4961702;28;97074;-85
2022/04/20 01:59:25;;;;;;;3.57;0.60;;;;;;;7.33;42.45;101560.81;4966267;28;97317;-84
2022/04/20 02:04:34;;;;;;;0.83;0.80;;;;;;;7.21;42.59;101547.94;4964125;28;97171;-85
2022/04/20 02:07:00;;;;;;;0.60;0.60;;;;;;;7.19;42.42;101558.59;4992564;28;96934;-84
2022/04/20 02:09:26;;;;;;;1.50;0.53;;;;;;;7.19;42.56;101561.31;4966498;28;97646;-84
2022/04/20 02:11:51;;;;;;;0.67;0.67;;;;;;;7.20;42.64;101562.84;4972590;28;98300;-84
2022/04/20 02:14:17;;;;;;;0.40;0.40;;;;;;;7.20;42.68;101567.56;4963930;28;98404;-84
2022/04/20 02:16:42;;;;;;;0.73;0.70;;;;;;;7.21;42.44;101547.94;4973018;28;96994;-84
2022/04/20 02:19:08;;;;;;;0.93;0.70;;;;;;;7.23;42.77;101572.91;4971733;28;97159;-85
2022/04/20 02:21:33;;;;;;;0.80;0.63;;;;;;;7.24;42.61;101562.72;4967997;28;98041;-85
2022/04/20 02:23:58;;;;;;;0.80;0.67;;;;;;;7.19;42.74;101560.56;4971817;28;97700;-85
2022/04/20 02:26:24;;;;;;;1.33;0.80;;;;;;;7.24;42.69;101560.75;4972006;28;97218;-84
2022/04/20 02:28:49;;;;;;;1.13;0.50;;;;;;;7.25;42.80;101565.00;4969504;28;97261;-84
2022/04/20 02:31:16;;;;;;;3.97;0.70;;;;;;;7.32;42.74;101577.66;4976148;28;98663;-85
2022/04/20 02:33:42;;;;;;;0.60;0.50;;;;;;;7.34;42.73;101562.31;4979015;28;97406;-84
2022/04/20 02:36:07;;;;;;;1.53;0.40;;;;;;;7.35;42.83;101558.38;4968842;28;97259;-84
2022/04/20 02:38:35;;;;;;;1.13;0.63;;;;;;;7.35;42.99;101583.03;4972851;28;97299;-85
2022/04/20 02:41:00;;;;;;;1.20;0.77;;;;;;;7.32;42.82;101580.41;4974575;28;97661;-85
2022/04/20 02:43:27;;;;;;;0.70;0.60;;;;;;;7.34;42.66;101569.75;4975935;28;97251;-84
2022/04/20 02:45:52;;;;;;;1.63;0.73;;;;;;;7.29;42.92;101564.88;4968718;28;96643;-85
2022/04/20 02:48:18;;;;;;;0.67;0.67;;;;;;;7.22;43.01;101574.13;4966383;28;97129;-85
2022/04/20 02:50:44;;;;;;;1.13;0.60;;;;;;;7.17;42.94;101577.44;4981104;28;96989;-84
2022/04/20 02:53:09;;;;;;;0.90;0.63;;;;;;;7.16;43.03;101578.66;4970969;28;97560;-85
2022/04/20 02:55:34;;;;;;;1.10;0.60;;;;;;;7.12;43.19;101579.97;4975535;28;96889;-84
2022/04/20 02:58:00;;;;;;;0.50;0.50;;;;;;;7.10;43.13;101579.66;4968904;28;96887;-84
2022/04/20 03:00:25;;;;;;;0.50;0.50;;;;;;;7.06;43.21;101571.56;4971329;28;98567;-84
2022/04/20 03:02:50;;;;;;;0.57;0.50;;;;;;;7.08;43.06;101599.25;4970668;28;97959;-85
2022/04/20 03:05:16;;;;;;;0.70;0.70;;;;;;;7.07;43.09;101572.34;4977008;28;96645;-84
2022/04/20 03:07:41;;;;;;;1.23;0.57;;;;;;;7.05;43.15;101569.28;4970746;28;99930;-84
2022/04/20 03:10:07;;;;;;;0.70;0.67;;;;;;;7.06;42.92;101577.03;4977080;28;97174;-84
2022/04/20 03:12:33;;;;;;;0.70;0.60;;;;;;;7.06;43.44;101581.75;4971816;28;97724;-84
2022/04/20 03:14:58;;;;;;;1.27;0.73;;;;;;;7.03;43.22;101564.28;4988266;28;96211;-85
2022/04/20 03:17:24;;;;;;;0.80;0.80;;;;;;;7.00;43.22;101567.88;4982601;28;96781;-84
2022/04/20 03:19:51;;;;;;;9.93;5.70;;;;;;;6.94;43.46;101566.16;4975161;28;98022;-84
2022/04/20 03:22:17;;;;;;;16.43;9.53;;;;;;;6.82;43.30;101573.97;4967388;28;96912;-84
2022/04/20 03:24:42;;;;;;;5.80;4.07;;;;;;;6.73;43.58;101584.84;4974639;28;96934;-84
2022/04/20 03:27:07;;;;;;;3.90;3.13;;;;;;;6.65;43.78;101563.66;4980225;28;97059;-84
2022/04/20 03:29:34;;;;;;;2.77;1.90;;;;;;;6.60;43.74;101575.13;4967986;28;98644;-84
2022/04/20 03:32:01;;;;;;;1.90;1.60;;;;;;;6.52;44.03;101568.38;4973528;28;98721;-84
2022/04/20 03:34:28;;;;;;;1.23;1.03;;;;;;;6.47;44.07;101568.94;4968391;28;96726;-84
2022/04/20 03:36:54;;;;;;;1.27;0.67;;;;;;;6.47;44.10;101577.91;4970837;28;97235;-84
2022/04/20 03:39:19;;;;;;;1.00;0.90;;;;;;;6.45;44.17;101574.84;4967869;28;98809;-84
2022/04/20 03:41:54;;;;;;;0.60;0.60;;;;;;;6.42;44.97;101570.25;4972140;28;97604;-85
2022/04/20 03:44:19;;;;;;;0.60;0.50;;;;;;;6.44;44.24;101575.31;4969394;28;96799;-85
2022/04/20 03:46:45;;;;;;;0.93;0.80;;;;;;;6.40;44.04;101583.59;4974854;28;96881;-84
2022/04/20 03:49:11;;;;;;;0.70;0.60;;;;;;;6.37;44.26;101570.06;4955609;28;96993;-84
2022/04/20 03:51:37;;;;;;;1.87;1.00;;;;;;;6.35;44.50;101588.88;4971160;28;98392;-84
2022/04/20 03:54:02;;;;;;;0.83;0.50;;;;;;;6.32;44.52;101570.63;4967327;28;96879;-85
2022/04/20 03:57:03;;;;;;;0.73;0.73;;;;;;;6.25;44.63;101571.59;4968632;28;96965;-85
2022/04/20 03:59:13;;;;;;;0.80;0.80;;;;;;;6.30;44.67;101576.53;4961926;28;97543;-84
2022/04/20 04:01:38;;;;;;;0.80;0.70;;;;;;;6.28;44.67;101565.28;4974060;28;97176;-85
2022/04/20 04:04:05;;;;;;;0.93;0.77;;;;;;;6.27;44.79;101571.19;4972537;28;96722;-85
2022/04/20 04:06:30;;;;;;;1.33;0.83;;;;;;;6.25;44.80;101560.69;4971151;28;96829;-85
2022/04/20 04:08:55;;;;;;;1.37;0.80;;;;;;;6.30;44.92;101579.25;4958566;28;98046;-85
2022/04/20 04:11:21;;;;;;;1.73;0.87;;;;;;;6.37;44.82;101581.00;4965105;28;98166;-84
2022/04/20 04:13:46;;;;;;;1.00;0.90;;;;;;;6.40;44.52;101569.94;4963446;28;96822;-84
2022/04/20 04:16:11;;;;;;;0.80;0.80;;;;;;;6.41;45.25;101589.84;4965774;28;97167;-85
2022/04/20 04:18:37;;;;;;;1.13;0.90;;;;;;;6.43;44.96;101592.91;4967731;28;101871;-85
2022/04/20 04:21:02;;;;;;;0.60;0.60;;;;;;;6.40;45.05;101593.78;4958806;28;97677;-84
2022/04/20 04:23:28;;;;;;;0.53;0.53;;;;;;;6.39;45.17;101603.97;4945477;28;97176;-84
2022/04/20 04:25:53;;;;;;;1.20;1.07;;;;;;;6.40;45.44;101593.78;4944578;28;97220;-83
2022/04/20 04:28:19;;;;;;;1.93;0.93;;;;;;;6.45;45.21;101582.28;4946769;28;97896;-84
2022/04/20 04:30:45;;;;;;;1.40;1.00;;;;;;;6.50;45.39;101598.13;4945496;28;97314;-84
2022/04/20 04:33:10;;;;;;;1.33;1.23;;;;;;;6.51;45.29;101588.75;4950251;28;97026;-84
2022/04/20 04:35:36;;;;;;;1.73;1.20;;;;;;;6.55;45.59;101597.59;4942921;28;97194;-84
2022/04/20 04:38:01;;;;;;;0.90;0.90;;;;;;;6.55;45.31;101571.00;4943736;28;97973;-85
2022/04/20 04:40:26;;;;;;;1.10;1.00;;;;;;;6.55;45.25;101594.84;4944619;28;99592;-85
2022/04/20 04:42:52;;;;;;;1.37;1.00;;;;;;;6.52;45.42;101582.06;4943205;28;97329;-84
2022/04/20 04:50:46;;;;;;;1.40;1.10;;;;;;;6.44;45.73;101569.84;4945327;28;101215;-84
2022/04/20 04:53:11;;;;;;;0.80;0.80;;;;;;;6.42;45.86;101583.19;4943667;28;97428;-84
2022/04/20 04:55:37;;;;;;;1.97;0.80;;;;;;;6.33;45.78;101583.84;4944232;28;97277;-84
2022/04/20 04:58:02;;;;;;;2.70;0.80;;;;;;;6.23;46.07;101579.47;4959593;28;98356;-85
2022/04/20 05:00:28;;;;;;;1.23;1.00;;;;;;;6.23;46.38;101581.44;4963898;28;98422;-84
2022/04/20 05:02:53;;;;;;;1.00;0.90;;;;;;;6.21;46.09;101592.06;4970605;28;96749;-85
2022/04/20 05:05:19;;;;;;;2.40;1.30;;;;;;;6.24;46.29;101594.69;4971098;28;97266;-84
2022/04/20 05:07:44;;;;;;;1.00;0.83;;;;;;;6.18;46.30;101569.09;4967975;28;96960;-83
2022/04/20 05:10:09;;;;;;;1.00;1.00;;;;;;;6.27;46.36;101606.72;4973268;28;99680;-84
2022/04/20 05:12:35;;;;;;;1.13;1.03;;;;;;;6.27;46.38;101582.88;4967887;28;97169;-84
2022/04/20 05:15:01;;;;;;;0.77;0.77;;;;;;;6.28;46.59;101597.28;4980627;28;97149;-84
2022/04/20 05:17:26;;;;;;;1.00;0.90;;;;;;;6.27;46.17;101576.66;4975537;28;98197;-84
2022/04/20 05:19:52;;;;;;;1.53;1.10;;;;;;;6.29;46.33;101596.84;4969615;28;97755;-84
2022/04/20 05:22:17;;;;;;;1.53;1.10;;;;;;;6.28;46.73;101575.44;4968149;28;96959;-84
2022/04/20 05:24:42;;;;;;;1.70;1.60;;;;;;;6.37;46.63;101589.19;4967578;28;96836;-83
2022/04/20 05:27:08;;;;;;;2.70;1.53;;;;;;;6.43;46.61;101601.09;4969451;28;98570;-84
2022/04/20 05:29:34;;;;;;;1.00;1.00;;;;;;;6.47;46.66;101604.47;4967985;28;98122;-84
2022/04/20 05:31:59;;;;;;;1.10;1.10;;;;;;;6.53;46.68;101600.00;4972868;28;97196;-84
2022/04/20 05:34:26;;;;;;;0.80;0.80;;;;;;;6.61;46.77;101609.50;4971144;28;97843;-84
2022/04/20 05:42:20;;;;;;;1.13;1.03;;;;;;;6.79;46.48;101591.25;4969928;28;97081;-84
2022/04/20 05:44:48;;;;;;;2.70;1.20;;;;;;;6.87;46.96;101602.72;4979389;28;97005;-83
2022/04/20 05:47:13;;;;;;;1.27;1.20;;;;;;;6.94;46.41;101605.22;4973488;28;97526;-84
2022/04/20 05:49:39;;;;;;;3.47;1.37;;;;;;;6.97;46.50;101614.53;4965426;28;96794;-84
2022/04/20 05:52:06;;;;;;;1.47;1.37;;;;;;;7.09;46.58;101611.72;4962366;28;96890;-84
2022/04/20 05:54:31;;;;;;;1.33;1.30;;;;;;;7.17;46.64;101615.72;4974435;28;96907;-85
2022/04/20 05:56:57;;;;;;;1.47;1.37;;;;;;;7.28;46.65;101613.38;4959073;28;98824;-84
2022/04/20 05:59:23;;;;;;;1.70;1.60;;;;;;;7.40;46.74;101626.22;4968757;28;99608;-84
2022/04/20 06:01:49;;;;;;;3.00;1.97;;;;;;;7.58;46.71;101615.41;4969815;28;97560;-85
2022/04/20 06:04:14;;;;;;;1.80;1.70;;;;;;;7.72;46.65;101607.88;4976620;28;96791;-84
2022/04/20 06:06:40;;;;;;;2.00;1.90;;;;;;;7.83;47.13;101624.66;4974045;28;100606;-84
2022/04/20 06:09:05;;;;;;;1.90;1.63;;;;;;;7.99;46.97;101617.00;4985054;28;99503;-84
2022/04/20 06:11:30;;;;;;;1.63;1.53;;;;;;;8.18;46.99;101623.28;4992938;28;96861;-85
2022/04/20 06:13:57;;;;;;;5.10;1.70;;;;;;;8.34;47.06;101617.59;5001347;28;96609;-85
2022/04/20 06:16:23;;;;;;;2.27;2.07;;;;;;;8.52;47.04;101614.88;4994158;28;98948;-84
2022/04/20 06:18:48;;;;;;;2.73;1.93;;;;;;;8.72;46.97;101623.44;5004937;28;98223;-84
2022/04/20 06:21:14;;;;;;;1.80;1.70;;;;;;;8.91;46.83;101621.50;4994507;28;96751;-84
2022/04/20 06:23:39;;;;;;;1.77;1.67;;;;;;;9.07;46.66;101616.44;4986060;28;96814;-83
2022/04/20 06:26:04;;;;;;;5.03;2.37;;;;;;;9.25;46.51;101615.69;4990397;28;97804;-84
2022/04/20 06:28:30;;;;;;;2.67;2.17;;;;;;;9.39;46.25;101617.78;4988285;28;99587;-84
2022/04/20 06:30:55;;;;;;;9.00;3.40;;;;;;;9.52;46.32;101617.63;4978968;28;97101;-85
2022/04/20 06:33:24;;;;;;;5.97;3.33;;;;;;;9.63;46.34;101640.63;4980387;28;97499;-82
2022/04/20 06:35:51;;;;;;;3.10;2.87;;;;;;;9.77;46.22;101630.97;4972180;28;96876;-85
2022/04/20 06:38:16;;;;;;;3.27;2.97;;;;;;;9.92;46.19;101622.84;4976321;28;98666;-84
2022/04/20 06:40:42;;;;;;;5.50;3.13;;;;;;;10.09;46.18;101613.75;4975494;28;96897;-84
2022/04/20 06:43:08;;;;;;;3.20;2.80;;;;;;;10.27;46.09;101604.69;4972673;28;97480;-85
2022/04/20 06:45:33;;;;;;;3.43;2.20;;;;;;;10.43;45.90;101618.81;4974297;28;97199;-84
2022/04/20 06:48:00;;;;;;;3.33;1.90;;;;;;;10.61;45.93;101622.69;4968147;28;99890;-83
2022/04/20 06:50:26;;;;;;;1.83;1.70;;;;;;;10.64;45.96;101619.00;4976878;28;96592;-82
2022/04/20 06:58:31;;;;;;;1.57;1.47;;;;;;;11.00;45.61;101591.94;4964882;28;96934;-83
2022/04/20 07:00:57;;;;;;;2.03;1.67;;;;;;;11.09;45.48;101596.63;4979317;28;96786;-84
2022/04/20 07:03:23;;;;;;;1.63;1.40;;;;;;;11.30;45.50;101587.22;4971528;28;96836;-84
2022/04/20 07:05:48;;;;;;;3.60;1.47;;;;;;;11.52;45.35;101589.59;4977333;28;99723;-84
2022/04/20 07:08:14;;;;;;;1.43;1.33;;;;;;;11.69;44.96;101604.44;4972613;28;97588;-84
2022/04/20 07:10:39;;;;;;;1.53;1.30;;;;;;;11.77;44.75;101589.06;4971137;28;96990;-83
2022/04/20 07:13:05;;;;;;;3.13;1.50;;;;;;;11.90;44.68;101587.50;4983467;28;96964;-84
2022/04/20 07:15:30;;;;;;;1.20;1.10;;;;;;;12.04;44.66;101597.75;4963277;28;98733;-84
2022/04/20 07:17:56;;;;;;;1.60;1.50;;;;;;;12.19;44.62;101600.47;4977747;28;97229;-84
2022/04/20 07:20:21;;;;;;;1.40;1.30;;;;;;;12.34;44.50;101584.59;4966482;28;97961;-85
2022/04/20 07:22:48;;;;;;;1.20;1.20;;;;;;;12.46;44.38;101599.31;4972654;28;97192;-84
2022/04/20 07:25:16;;;;;;;8.03;1.93;;;;;;;12.59;44.17;101592.22;4970005;28;98384;-85
2022/04/20 07:27:41;;;;;;;3.93;1.30;;;;;;;12.69;44.28;101595.59;4967532;28;98464;-84
2022/04/20 07:30:08;;;;;;;1.50;1.40;;;;;;;12.86;43.94;101595.81;4985371;28;97047;-84
2022/04/20 07:32:33;;;;;;;2.20;1.47;;;;;;;12.97;43.48;101596.69;4969943;28;96948;-84
2022/04/20 07:34:58;;;;;;;2.87;1.30;;;;;;;12.98;43.64;101589.16;4971811;28;98436;-84
2022/04/20 07:37:24;;;;;;;1.70;1.60;;;;;;;12.99;43.63;101590.69;4968547;28;97745;-83
2022/04/20 07:39:49;;;;;;;2.10;1.20;;;;;;;13.05;43.14;101580.47;4967063;28;97049;-83
2022/04/20 07:42:15;;;;;;;1.73;1.63;;;;;;;13.06;43.16;101604.09;4966163;28;96948;-83
2022/04/20 07:44:40;;;;;;;2.20;1.53;;;;;;;13.13;43.04;101606.41;4974443;28;98814;-81
2022/04/20 07:47:06;;;;;;;2.57;1.83;;;;;;;13.14;43.03;101597.66;4945158;28;96892;-84
2022/04/20 07:52:21;;;;;;;2.10;1.50;;;;;;;13.34;42.93;101611.44;4965463;28;96868;-84
2022/04/20 07:54:46;;;;;;;2.50;1.80;;;;;;;13.36;42.89;101644.09;4965488;28;101957;-81
2022/04/20 07:57:15;;;;;;;1.33;1.27;;;;;;;13.46;42.79;101609.50;4967705;28;100459;-83
2022/04/20 07:59:43;;;;;;;1.40;1.30;;;;;;;13.54;42.67;101624.44;4970682;28;96745;-83
2022/04/20 08:02:09;;;;;;;1.73;1.63;;;;;;;13.62;42.47;101614.44;4973329;28;96726;-81
2022/04/20 08:04:35;;;;;;;1.70;1.53;;;;;;;13.68;42.48;101608.94;4966412;28;98776;-83
2022/04/20 08:07:00;;;;;;;1.57;1.50;;;;;;;13.86;42.85;101609.34;4965021;28;98319;-83
2022/04/20 08:09:26;;;;;;;1.70;1.57;;;;;;;14.08;42.67;101622.59;4964866;28;96808;-84
2022/04/20 08:11:51;;;;;;;1.70;1.60;;;;;;;14.15;42.26;101611.81;4967357;28;96982;-82
2022/04/20 08:14:17;;;;;;;2.00;1.70;;;;;;;14.09;42.10;101618.56;4977664;28;97864;-83
2022/04/20 08:16:44;;;;;;;2.27;1.40;;;;;;;14.09;42.34;101624.09;4976101;28;96747;-83
2022/04/20 08:19:10;;;;;;;1.30;1.20;;;;;;;14.14;42.44;101618.59;4971633;28;96877;-81
2022/04/20 08:21:36;;;;;;;4.73;1.60;;;;;;;14.22;42.10;101627.19;4976170;28;96958;-83
2022/04/20 08:24:01;;;;;;;1.67;1.57;;;;;;;14.34;41.85;101620.53;4967328;28;97893;-82
2022/04/20 08:26:27;;;;;;;2.00;1.73;;;;;;;14.38;41.80;101628.59;4972046;28;97484;-83
2022/04/20 08:28:52;;;;;;;1.90;1.60;;;;;;;14.43;41.75;101622.31;4968282;28;96736;-81
2022/04/20 08:31:18;;;;;;;1.63;1.50;;;;;;;14.45;41.68;101630.91;4970318;28;97013;-82
2022/04/20 08:33:43;;;;;;;2.63;2.07;;;;;;;14.56;41.82;101626.19;4965693;28;97648;-83
2022/04/20 08:36:12;;;;;;;2.60;2.20;;;;;;;14.81;41.83;101619.72;4975129;28;98601;-83
2022/04/20 08:38:41;;;;;;;1.70;1.43;;;;;;;15.08;41.66;101617.53;4967286;28;96558;-84
2022/04/20 08:41:10;;;;;;;2.00;1.87;;;;;;;15.15;41.20;101622.63;4966868;28;96825;-82
2022/04/20 08:43:40;;;;;;;2.03;1.90;;;;;;;15.22;41.00;101616.59;4975016;28;98461;-83
2022/04/20 08:46:08;;;;;;;2.80;1.80;;;;;;;15.35;41.37;101630.72;4974507;28;97179;-85
2022/04/20 08:48:34;;;;;;;2.00;1.80;;;;;;;15.51;41.13;101638.31;4961138;28;98076;-83
2022/04/20 08:51:03;;;;;;;3.37;2.03;;;;;;;15.53;40.69;101617.16;4977578;28;96983;-85
2022/04/20 08:53:29;;;;;;;1.60;1.50;;;;;;;15.69;41.21;101621.19;4983556;28;97554;-85
2022/04/20 08:58:45;;;;;;;3.07;1.63;;;;;;;15.88;40.82;101613.88;4958788;28;97250;-83
2022/04/20 09:01:13;;;;;;;1.77;1.67;;;;;;;15.93;40.44;101629.78;4964729;28;97130;-83
2022/04/20 09:03:39;;;;;;;2.43;1.90;;;;;;;15.96;40.55;101606.56;4974264;28;97657;-84
2022/04/20 09:06:06;;;;;;;3.20;1.90;;;;;;;15.98;40.84;101606.81;4976077;28;100812;-82
2022/04/20 09:08:31;;;;;;;2.93;1.93;;;;;;;16.17;40.65;101610.56;4968077;28;97626;-84
2022/04/20 09:10:59;;;;;;;1.80;1.70;;;;;;;16.46;40.63;101607.22;4971123;28;96967;-85
2022/04/20 09:13:44;;;;;;;4.87;2.03;;;;;;;16.68;39.94;101597.31;4969764;28;102363;-85
2022/04/20 09:16:11;;;;;;;2.00;1.50;;;;;;;16.91;40.17;101593.91;4978146;28;102913;-83
2022/04/20 09:18:38;;;;;;;2.03;1.80;;;;;;;17.01;39.84;101606.25;4964067;28;96856;-84
2022/04/20 09:21:08;;;;;;;5.87;1.67;;;;;;;17.16;39.61;101603.88;4970781;28;96943;-84
2022/04/20 09:23:34;;;;;;;3.00;1.90;;;;;;;17.30;39.58;101596.44;4967606;28;102336;-85
2022/04/20 09:26:12;;;;;;;2.03;1.53;;;;;;;17.13;38.65;101595.78;4966136;28;99671;-84
2022/04/20 09:28:39;;;;;;;1.60;1.50;;;;;;;17.19;39.60;101613.19;4984240;28;97871;-84
2022/04/20 09:31:07;;;;;;;1.80;1.70;;;;;;;17.20;39.17;101598.03;4968247;28;97952;-84
2022/04/20 09:33:42;;;;;;;2.47;1.60;;;;;;;17.33;38.06;101594.66;4963433;28;97545;-83
2022/04/20 09:36:08;;;;;;;2.33;2.00;;;;;;;17.32;39.11;101587.59;4963348;28;97457;-83
2022/04/20 09:38:37;;;;;;;1.80;1.70;;;;;;;17.34;39.47;101591.38;4972169;28;96876;-84
2022/04/20 09:41:09;;;;;;;2.17;1.90;;;;;;;17.49;38.67;101588.22;4980054;28;97111;-84
2022/04/20 09:43:36;;;;;;;2.23;1.90;;;;;;;17.49;38.91;101594.56;4972785;28;97788;-83
2022/04/20 09:46:04;;;;;;;1.20;1.10;;;;;;;17.24;38.92;101595.72;4966135;28;98572;-83
2022/04/20 09:51:21;;;;;;;2.23;1.50;;;;;;;17.14;38.58;101595.31;4970205;28;97266;-82
2022/04/20 09:53:49;;;;;;;5.47;1.80;;;;;;;17.13;38.87;101593.78;4969934;28;98375;-82
2022/04/20 09:56:22;;;;;;;1.93;1.50;;;;;;;17.36;39.31;101577.72;4963851;28;99130;-85
2022/04/20 09:58:58;;;;;;;4.80;2.30;;;;;;;17.63;37.84;101590.66;4959393;28;96976;-83
2022/04/20 10:01:27;;;;;;;1.73;1.43;;;;;;;17.78;38.63;101573.56;4971393;28;97655;-84
2022/04/20 10:03:55;;;;;;;2.83;1.87;;;;;;;18.03;38.42;101583.47;4974289;28;98226;-84
2022/04/20 10:06:21;;;;;;;1.60;1.50;;;;;;;18.05;38.15;101574.56;4967619;28;100650;-85
2022/04/20 10:08:47;;;;;;;2.23;1.53;;;;;;;17.93;38.26;101571.91;4979116;28;97167;-85
2022/04/20 10:11:14;;;;;;;1.73;1.50;;;;;;;17.82;38.04;101560.88;4962212;28;97032;-83
2022/04/20 10:13:40;;;;;;;1.20;1.10;;;;;;;17.98;38.22;101568.31;4966994;28;96905;-84
2022/04/20 10:16:09;;;;;;;4.50;1.40;;;;;;;18.05;38.07;101552.28;4968007;28;99571;-83
2022/04/20 10:18:39;;;;;;;1.40;1.23;;;;;;;18.07;38.32;101552.53;4953507;28;97159;-84
2022/04/20 10:21:13;;;;;;;1.40;1.30;;;;;;;18.32;38.10;101552.00;4943695;28;96632;-85
2022/04/20 10:23:50;;;;;;;2.37;1.07;;;;;;;18.61;36.68;101542.03;4943719;28;97625;-84
2022/04/20 10:26:17;;;;;;;1.87;1.17;;;;;;;18.72;37.38;101550.25;4942661;28;97471;-84
2022/04/20 10:29:29;;;;;;;1.30;1.20;;;;;;;18.75;34.46;101546.41;4944400;28;96718;-83
2022/04/20 10:32:05;;;;;;;1.80;1.20;;;;;;;18.78;35.99;101545.38;4916187;28;97614;-83
2022/04/20 10:34:31;;;;;;;1.33;0.80;;;;;;;18.75;36.42;101545.66;4960752;28;97398;-84
2022/04/20 10:37:02;;;;;;;0.90;0.90;;;;;;;18.80;35.41;101548.38;4970330;28;98397;-84
2022/04/20 10:39:33;;;;;;;0.80;0.80;;;;;;;18.75;35.51;101542.84;4975094;28;97140;-85
2022/04/20 10:42:11;;;;;;;1.30;1.03;;;;;;;18.71;34.14;101532.03;4968745;28;96741;-82
2022/04/20 10:45:06;;;;;;;1.00;0.87;;;;;;;18.63;32.73;101537.44;4965344;28;97811;-83
2022/04/20 10:47:38;;;;;;;0.70;0.67;;;;;;;18.76;34.90;101536.03;4970582;28;103223;-83
2022/04/20 10:50:13;;;;;;;0.83;0.83;;;;;;;18.90;34.65;101534.78;4975195;28;96860;-83
2022/04/20 10:52:41;;;;;;;0.83;0.83;;;;;;;19.07;35.38;101524.88;4975467;28;96951;-83
2022/04/20 10:55:09;;;;;;;1.33;1.00;;;;;;;19.33;35.12;101532.63;4965671;28;100745;-84
2022/04/20 10:57:42;;;;;;;1.20;1.10;;;;;;;19.56;34.37;101530.97;4964719;28;96784;-84
2022/04/20 11:00:16;;;;;;;1.20;0.90;;;;;;;19.55;33.13;101517.56;4956260;28;97223;-84
2022/04/20 11:03:00;;;;;;;0.90;0.90;;;;;;;19.36;34.02;101515.59;4971384;28;97357;-84
2022/04/20 11:05:25;;;;;;;1.20;1.10;;;;;;;19.27;35.13;101502.00;4977002;28;98024;-84
2022/04/20 11:07:59;;;;;;;1.33;0.90;;;;;;;19.65;34.84;101496.31;4969831;28;98158;-85
2022/04/20 11:10:25;;;;;;;1.57;1.20;;;;;;;20.13;34.80;101485.47;4975630;28;96983;-85
2022/04/20 11:18:39;;;;;;;0.80;0.80;;;;;;;21.01;33.31;101492.44;4972625;28;101474;-85
2022/04/20 11:21:06;;;;;;;2.60;1.10;;;;;;;20.88;33.39;101496.06;4969332;28;96778;-85
2022/04/20 11:23:57;;;;;;;1.00;1.00;;;;;;;20.72;32.28;101489.56;4972621;28;96998;-84
2022/04/20 11:26:35;;;;;;;5.93;0.83;;;;;;;20.96;32.42;101496.88;4971225;28;102812;-84
2022/04/20 11:29:33;;;;;;;1.83;1.00;;;;;;;21.19;31.33;101481.06;4964185;28;103629;-84
2022/04/20 11:32:09;;;;;;;1.13;0.90;;;;;;;21.22;32.53;101474.38;4902078;28;97913;-82
2022/04/20 11:34:36;;;;;;;1.43;0.90;;;;;;;21.13;32.48;101479.72;4978279;28;96876;-85
2022/04/20 11:37:06;;;;;;;1.63;1.00;;;;;;;21.09;32.19;101459.72;4988916;28;99484;-83
2022/04/20 11:39:32;;;;;;;1.37;1.10;;;;;;;20.86;32.31;101465.06;4971827;28;102503;-84
2022/04/20 11:42:03;;;;;;;0.87;0.87;;;;;;;20.91;31.88;101467.75;4971101;28;97178;-84
2022/04/20 11:44:29;;;;;;;1.13;0.90;;;;;;;21.25;32.53;101459.28;4962169;28;97048;-84
2022/04/20 11:47:01;;;;;;;1.00;1.00;;;;;;;21.70;32.44;101467.28;4968763;28;98878;-85
2022/04/20 11:49:37;;;;;;;0.70;0.70;;;;;;;22.15;31.07;101452.78;4969300;28;97645;-84
2022/04/20 11:52:06;;;;;;;1.23;1.10;;;;;;;22.25;30.86;101470.59;4964046;28;100363;-82
2022/04/20 11:54:34;;;;;;;4.57;1.00;;;;;;;22.06;30.72;101476.47;4973269;28;96974;-83
2022/04/20 11:57:00;;;;;;;1.50;0.93;;;;;;;21.99;30.90;101466.00;4971731;28;96917;-83
2022/04/20 11:59:26;;;;;;;1.00;0.90;;;;;;;21.92;30.26;101465.94;4966529;28;99382;-83
2022/04/20 12:01:52;;;;;;;1.60;0.73;;;;;;;21.73;30.25;101457.78;4991147;28;96933;-83